Time;durP1;ratioP1;P1;durP2;ratioP2;P2;SDS_P1;SDS_P2;PMS_P1;PMS_P2;Temp;Humidity;BMP_temperature;BMP_pressure;BME280_temperature;BME280_humidity;BME280_pressure;Samples;Min_cycle;Max_cycle;Signal;HPM_P1;HPM_P2
2022/02/14 00:02:03;;;;;;;;;;;2.60;82.70;;;;;;5064557;28;19915;-67
2022/02/14 00:04:29;;;;;;;;;;;2.50;82.80;;;;;;5064712;28;19932;-68
2022/02/14 00:06:54;;;;;;;;;;;2.60;82.90;;;;;;5064896;28;19987;-67
2022/02/14 00:09:20;;;;;;;;;;;2.50;82.70;;;;;;5064876;28;19954;-67
2022/02/14 00:11:46;;;;;;;;;;;2.50;82.70;;;;;;5064468;28;19908;-67
2022/02/14 00:14:11;;;;;;;;;;;2.50;82.50;;;;;;5063745;28;20142;-67
2022/02/14 00:16:37;;;;;;;;;;;2.50;82.40;;;;;;5064491;28;20246;-67
2022/02/14 00:19:03;;;;;;;;;;;2.50;82.50;;;;;;5064253;28;19908;-67
2022/02/14 00:21:28;;;;;;;;;;;2.50;81.80;;;;;;5064236;28;19909;-67
2022/02/14 00:23:54;;;;;;;;;;;2.60;81.50;;;;;;5064390;28;19912;-67
2022/02/14 00:26:20;;;;;;;;;;;2.60;81.70;;;;;;5064540;28;19909;-68
2022/02/14 00:28:46;;;;;;;;;;;2.50;81.90;;;;;;5064454;28;19916;-67
2022/02/14 00:31:12;;;;;;;;;;;2.60;81.30;;;;;;5064043;28;19916;-66
2022/02/14 00:33:37;;;;;;;;;;;2.50;81.40;;;;;;5064041;28;19999;-67
2022/02/14 00:36:03;;;;;;;;;;;2.50;81.60;;;;;;5064243;28;19915;-66
2022/02/14 00:38:29;;;;;;;;;;;2.50;81.90;;;;;;5064259;28;19913;-67
2022/02/14 00:40:55;;;;;;;;;;;2.50;81.90;;;;;;5063964;28;19947;-67
2022/02/14 00:43:21;;;;;;;;;;;2.40;82.20;;;;;;5064026;28;20088;-66
2022/02/14 00:45:48;;;;;;;;;;;2.40;82.20;;;;;;5063995;28;19974;-67
2022/02/14 00:48:14;;;;;;;;;;;2.40;82.20;;;;;;5063114;28;19908;-66
2022/02/14 00:50:40;;;;;;;;;;;2.30;82.30;;;;;;5063700;28;19931;-67
2022/02/14 00:53:07;;;;;;;;;;;2.30;82.10;;;;;;5063845;28;19984;-67
2022/02/14 00:55:33;;;;;;;;;;;2.40;82.40;;;;;;5063886;28;19909;-67
2022/02/14 00:57:59;;;;;;;;;;;2.40;82.30;;;;;;5063906;28;19967;-67
2022/02/14 01:00:25;;;;;;;;;;;2.30;82.60;;;;;;5063763;28;19935;-67
2022/02/14 01:02:50;;;;;;;;;;;2.30;82.50;;;;;;5063201;28;19975;-67
2022/02/14 01:05:16;;;;;;;;;;;2.30;82.50;;;;;;5063641;28;19909;-67
2022/02/14 01:07:42;;;;;;;;;;;2.30;82.50;;;;;;5063640;28;19909;-67
2022/02/14 01:10:09;;;;;;;;;;;2.20;82.70;;;;;;5063478;28;19930;-67
2022/02/14 01:12:36;;;;;;;;;;;2.20;82.80;;;;;;5062164;28;19912;-67
2022/02/14 01:15:05;;;;;;;;;;;2.20;82.90;;;;;;5062357;28;19912;-66
2022/02/14 01:17:34;;;;;;;;;;;2.20;82.70;;;;;;5063273;28;19913;-67
2022/02/14 01:20:04;;;;;;;;;;;2.30;82.50;;;;;;5063291;28;20107;-67
2022/02/14 01:22:29;;;;;;;;;;;2.20;82.70;;;;;;5063211;28;19908;-67
2022/02/14 01:24:55;;;;;;;;;;;2.30;82.70;;;;;;5062909;28;20360;-67
2022/02/14 01:27:21;;;;;;;;;;;2.20;82.80;;;;;;5062626;28;19980;-67
2022/02/14 01:29:46;;;;;;;;;;;2.20;83.00;;;;;;5063198;28;19915;-67
2022/02/14 01:32:12;;;;;;;;;;;2.20;82.90;;;;;;5062987;28;20195;-66
2022/02/14 01:34:38;;;;;;;;;;;2.20;82.90;;;;;;5062905;28;19909;-67
2022/02/14 01:37:03;;;;;;;;;;;2.20;82.90;;;;;;5063119;28;19913;-67
2022/02/14 01:39:29;;;;;;;;;;;2.20;82.90;;;;;;5063075;28;20302;-67
2022/02/14 01:41:56;;;;;;;;;;;2.20;82.70;;;;;;5062751;28;19943;-66
2022/02/14 01:44:36;;;;;;;;;;;2.30;82.60;;;;;;5062973;28;19980;-67
2022/02/14 01:47:02;;;;;;;;;;;2.30;82.70;;;;;;5063102;28;19915;-67
2022/02/14 01:49:27;;;;;;;;;;;2.30;82.70;;;;;;5062776;28;19908;-67
2022/02/14 01:51:53;;;;;;;;;;;2.20;82.90;;;;;;5062631;28;19981;-67
2022/02/14 01:54:19;;;;;;;;;;;2.30;82.60;;;;;;5062678;28;19912;-66
2022/02/14 01:56:44;;;;;;;;;;;2.30;82.20;;;;;;5062750;28;19913;-66
2022/02/14 01:59:10;;;;;;;;;;;2.40;82.20;;;;;;5062909;28;19913;-67
2022/02/14 02:01:36;;;;;;;;;;;2.40;82.20;;;;;;5062628;28;20103;-67
2022/02/14 02:04:01;;;;;;;;;;;2.40;83.60;;;;;;5062477;28;19947;-67
2022/02/14 02:06:27;;;;;;;;;;;2.40;83.00;;;;;;5062813;28;19909;-67
2022/02/14 02:08:53;;;;;;;;;;;2.40;82.20;;;;;;5061723;28;19909;-66
2022/02/14 02:14:03;;;;;;;;;;;2.40;82.00;;;;;;5062764;28;19916;-67
2022/02/14 02:16:28;;;;;;;;;;;2.40;82.10;;;;;;5062700;28;20265;-66
2022/02/14 02:18:54;;;;;;;;;;;2.40;82.00;;;;;;5061293;28;19915;-66
2022/02/14 02:21:20;;;;;;;;;;;2.50;81.60;;;;;;5077905;28;20241;-67
2022/02/14 02:23:46;;;;;;;;;;;2.50;81.60;;;;;;5062440;28;19984;-67
2022/02/14 02:26:11;;;;;;;;;;;2.60;81.60;;;;;;5061589;28;19912;-66
2022/02/14 02:28:37;;;;;;;;;;;2.60;81.40;;;;;;5062432;28;20140;-67
2022/02/14 02:31:04;;;;;;;;;;;2.60;81.20;;;;;;5077907;28;19916;-67
2022/02/14 02:33:30;;;;;;;;;;;2.60;81.20;;;;;;5061261;28;19916;-67
2022/02/14 02:35:56;;;;;;;;;;;2.70;81.30;;;;;;5062476;28;19909;-66
2022/02/14 02:38:23;;;;;;;;;;;2.70;81.20;;;;;;5065307;28;20023;-67
2022/02/14 02:40:49;;;;;;;;;;;2.70;80.60;;;;;;5066211;28;19920;-66
2022/02/14 02:43:17;;;;;;;;;;;2.80;80.40;;;;;;5065254;28;19987;-67
2022/02/14 02:45:43;;;;;;;;;;;2.80;80.20;;;;;;5066389;28;19932;-67
2022/02/14 02:48:09;;;;;;;;;;;2.80;80.00;;;;;;5059596;28;19909;-66
2022/02/14 02:50:35;;;;;;;;;;;2.90;80.30;;;;;;5064806;28;19976;-66
2022/02/14 02:53:01;;;;;;;;;;;2.90;80.00;;;;;;5066055;28;19919;-67
2022/02/14 02:55:26;;;;;;;;;;;2.90;79.60;;;;;;5065242;28;19908;-67
2022/02/14 02:57:52;;;;;;;;;;;3.00;79.70;;;;;;5066065;28;19913;-66
2022/02/14 03:00:18;;;;;;;;;;;3.00;79.70;;;;;;5064968;28;20116;-66
2022/02/14 03:02:44;;;;;;;;;;;3.00;79.30;;;;;;5065755;28;20245;-67
2022/02/14 03:05:09;;;;;;;;;;;3.10;79.80;;;;;;5065945;28;19908;-66
2022/02/14 03:07:35;;;;;;;;;;;3.10;79.00;;;;;;5065860;28;20158;-67
2022/02/14 03:10:01;;;;;;;;;;;3.10;78.90;;;;;;5065576;28;19944;-67
2022/02/14 03:12:27;;;;;;;;;;;3.10;79.00;;;;;;5065544;28;19971;-66
2022/02/14 03:14:52;;;;;;;;;;;3.10;79.20;;;;;;5065231;28;19983;-67
2022/02/14 03:17:18;;;;;;;;;;;3.10;79.30;;;;;;5065675;28;19944;-67
2022/02/14 03:19:44;;;;;;;;;;;3.10;79.00;;;;;;5065688;28;19966;-67
2022/02/14 03:22:09;;;;;;;;;;;3.20;78.40;;;;;;5065277;28;19916;-67
2022/02/14 03:24:35;;;;;;;;;;;3.30;78.00;;;;;;5065187;28;20208;-67
2022/02/14 03:27:01;;;;;;;;;;;3.30;78.30;;;;;;5065545;28;19909;-66
2022/02/14 03:29:27;;;;;;;;;;;3.30;78.20;;;;;;5065509;28;19908;-66
2022/02/14 03:31:53;;;;;;;;;;;3.30;78.40;;;;;;5065204;28;19951;-67
2022/02/14 03:34:19;;;;;;;;;;;3.30;78.40;;;;;;5065453;28;19955;-67
2022/02/14 03:36:44;;;;;;;;;;;3.30;78.20;;;;;;5063748;28;19964;-67
2022/02/14 03:39:11;;;;;;;;;;;3.40;78.20;;;;;;5065325;28;19908;-67
2022/02/14 03:41:37;;;;;;;;;;;3.40;77.40;;;;;;5064790;28;19956;-67
2022/02/14 03:44:02;;;;;;;;;;;3.50;76.70;;;;;;5065189;28;19916;-67
2022/02/14 03:46:28;;;;;;;;;;;3.50;77.00;;;;;;5065247;28;20146;-67
2022/02/14 03:48:54;;;;;;;;;;;3.50;77.10;;;;;;5063224;28;20455;-67
2022/02/14 03:51:19;;;;;;;;;;;3.50;76.70;;;;;;5064815;28;19947;-66
2022/02/14 03:53:45;;;;;;;;;;;3.50;76.50;;;;;;5089986;22;19999;-70
2022/02/14 03:56:11;;;;;;;;;;;3.50;75.90;;;;;;5083782;28;20168;-71
2022/02/14 03:58:37;;;;;;;;;;;3.50;76.40;;;;;;5083710;28;19917;-71
2022/02/14 04:01:02;;;;;;;;;;;3.60;75.90;;;;;;5083720;28;19916;-71
2022/02/14 04:03:28;;;;;;;;;;;3.60;75.80;;;;;;5083754;28;20128;-70
2022/02/14 04:05:54;;;;;;;;;;;3.60;75.60;;;;;;5083749;28;19908;-71
2022/02/14 04:08:19;;;;;;;;;;;3.60;75.50;;;;;;5082720;28;19913;-71
2022/02/14 04:10:45;;;;;;;;;;;3.60;76.10;;;;;;5083579;28;19929;-71
2022/02/14 04:13:11;;;;;;;;;;;3.60;75.30;;;;;;5083879;28;19916;-71
2022/02/14 04:15:36;;;;;;;;;;;3.70;75.10;;;;;;5084617;28;19908;-70
2022/02/14 04:18:02;;;;;;;;;;;3.70;74.50;;;;;;5084536;28;19952;-71
2022/02/14 04:20:28;;;;;;;;;;;3.70;73.80;;;;;;5084413;28;19971;-71
2022/02/14 04:22:54;;;;;;;;;;;3.70;74.10;;;;;;5084452;28;19971;-71
2022/02/14 04:25:20;;;;;;;;;;;3.70;74.60;;;;;;5084229;28;19915;-71
2022/02/14 04:27:46;;;;;;;;;;;3.70;73.70;;;;;;5084636;28;20134;-72
2022/02/14 04:30:12;;;;;;;;;;;3.80;74.50;;;;;;5084479;28;19908;-72
2022/02/14 04:32:38;;;;;;;;;;;3.80;74.10;;;;;;5083043;28;19909;-72
2022/02/14 04:35:04;;;;;;;;;;;3.80;73.30;;;;;;5083416;28;20161;-71
2022/02/14 04:37:30;;;;;;;;;;;3.80;73.40;;;;;;5084241;28;19947;-72
2022/02/14 04:39:56;;;;;;;;;;;3.80;73.10;;;;;;5083865;28;19916;-72
2022/02/14 04:42:21;;;;;;;;;;;3.80;72.20;;;;;;5082662;28;19986;-72
2022/02/14 04:44:47;;;;;;;;;;;3.80;73.10;;;;;;5083973;28;19916;-71
2022/02/14 04:47:13;;;;;;;;;;;3.90;72.10;;;;;;5083852;28;19916;-72
2022/02/14 04:49:38;;;;;;;;;;;3.90;72.30;;;;;;5083024;28;20218;-72
2022/02/14 04:52:04;;;;;;;;;;;3.80;72.80;;;;;;5082563;28;19939;-72
2022/02/14 04:54:30;;;;;;;;;;;3.80;72.40;;;;;;5083429;28;19983;-71
2022/02/14 04:56:56;;;;;;;;;;;3.80;72.10;;;;;;5083639;28;19913;-71
2022/02/14 04:59:22;;;;;;;;;;;3.90;72.30;;;;;;5083509;28;19909;-72
2022/02/14 05:01:47;;;;;;;;;;;3.90;71.90;;;;;;5082267;28;19930;-71
2022/02/14 05:04:14;;;;;;;;;;;3.90;72.20;;;;;;5083682;28;19975;-72
2022/02/14 05:06:40;;;;;;;;;;;3.90;72.10;;;;;;5082699;28;19908;-72
2022/02/14 05:09:06;;;;;;;;;;;3.90;71.70;;;;;;5086160;28;20272;-72
2022/02/14 05:11:31;;;;;;;;;;;3.90;72.10;;;;;;5103893;28;19908;-72
2022/02/14 05:13:57;;;;;;;;;;;3.90;71.70;;;;;;5103776;28;19954;-71
2022/02/14 05:16:23;;;;;;;;;;;3.90;71.50;;;;;;5103580;28;20102;-71
2022/02/14 05:18:49;;;;;;;;;;;3.80;72.20;;;;;;5101490;28;19908;-72
2022/02/14 05:21:15;;;;;;;;;;;3.90;71.40;;;;;;5082014;28;19931;-72
2022/02/14 05:23:41;;;;;;;;;;;3.80;71.50;;;;;;5082991;28;19913;-72
2022/02/14 05:26:06;;;;;;;;;;;3.90;71.70;;;;;;5082118;28;19908;-72
2022/02/14 05:28:32;;;;;;;;;;;3.90;70.40;;;;;;5083252;28;19908;-72
2022/02/14 05:30:58;;;;;;;;;;;3.90;71.10;;;;;;5081891;28;19915;-72
2022/02/14 05:33:24;;;;;;;;;;;3.90;70.90;;;;;;5081811;28;20203;-72
2022/02/14 05:35:50;;;;;;;;;;;3.90;70.30;;;;;;5083250;28;19930;-71
2022/02/14 05:38:15;;;;;;;;;;;3.90;69.80;;;;;;5081829;28;20034;-72
2022/02/14 05:40:41;;;;;;;;;;;3.90;70.00;;;;;;5082421;28;19908;-72
2022/02/14 05:43:06;;;;;;;;;;;3.90;69.70;;;;;;5081695;28;19946;-72
2022/02/14 05:45:33;;;;;;;;;;;3.90;69.40;;;;;;5082916;28;19908;-71
2022/02/14 05:47:58;;;;;;;;;;;3.90;69.60;;;;;;5065124;28;19908;-71
2022/02/14 05:50:24;;;;;;;;;;;3.90;69.00;;;;;;5082860;28;19909;-71
2022/02/14 05:52:50;;;;;;;;;;;3.90;69.70;;;;;;5082465;28;19916;-71
2022/02/14 05:55:15;;;;;;;;;;;3.90;69.80;;;;;;5081335;28;19912;-71
2022/02/14 05:57:41;;;;;;;;;;;3.90;69.80;;;;;;5081673;28;19979;-71
2022/02/14 06:00:08;;;;;;;;;;;3.90;69.70;;;;;;5081734;28;19975;-71
2022/02/14 06:02:34;;;;;;;;;;;3.90;69.60;;;;;;5082398;28;20208;-71
2022/02/14 06:04:59;;;;;;;;;;;3.90;69.20;;;;;;5081580;28;20011;-71
2022/02/14 06:07:25;;;;;;;;;;;4.00;68.50;;;;;;5082820;28;20214;-71
2022/02/14 06:09:51;;;;;;;;;;;4.00;68.80;;;;;;5082410;28;19916;-71
2022/02/14 06:12:16;;;;;;;;;;;3.90;68.80;;;;;;5083616;28;19915;-70
2022/02/14 06:14:42;;;;;;;;;;;3.90;68.70;;;;;;5086796;28;19915;-71
2022/02/14 06:17:08;;;;;;;;;;;3.90;69.30;;;;;;5085517;28;20107;-71
2022/02/14 06:19:33;;;;;;;;;;;3.90;69.30;;;;;;5086162;28;19909;-70
2022/02/14 06:21:59;;;;;;;;;;;3.90;68.70;;;;;;5085321;28;20345;-71
2022/02/14 06:24:25;;;;;;;;;;;3.90;68.40;;;;;;5086366;28;19923;-70
2022/02/14 06:26:51;;;;;;;;;;;3.90;68.70;;;;;;5068407;28;19979;-70
2022/02/14 06:29:16;;;;;;;;;;;3.90;69.40;;;;;;5086278;28;19915;-71
2022/02/14 06:31:42;;;;;;;;;;;3.90;68.50;;;;;;5086094;28;19961;-70
2022/02/14 06:34:08;;;;;;;;;;;4.00;68.20;;;;;;5086459;28;19908;-71
2022/02/14 06:36:33;;;;;;;;;;;4.00;67.90;;;;;;5085996;28;20309;-71
2022/02/14 06:38:59;;;;;;;;;;;4.00;68.20;;;;;;5086084;28;19963;-71
2022/02/14 06:41:26;;;;;;;;;;;4.00;67.30;;;;;;5084945;28;19915;-71
2022/02/14 06:43:52;;;;;;;;;;;4.00;67.90;;;;;;5084201;28;19908;-71
2022/02/14 06:46:18;;;;;;;;;;;4.00;68.10;;;;;;5085916;28;20139;-71
2022/02/14 06:48:44;;;;;;;;;;;4.00;68.40;;;;;;5086151;28;19975;-71
2022/02/14 06:51:11;;;;;;;;;;;4.00;67.70;;;;;;5085095;28;20102;-71
2022/02/14 06:53:37;;;;;;;;;;;4.00;67.40;;;;;;5084721;28;19919;-70
2022/02/14 06:56:05;;;;;;;;;;;4.00;67.50;;;;;;5078755;28;19925;-70
2022/02/14 06:58:38;;;;;;;;;;;3.90;67.60;;;;;;5074229;28;19916;-69
2022/02/14 07:01:04;;;;;;;;;;;3.90;66.80;;;;;;5081544;28;20190;-68
2022/02/14 07:03:30;;;;;;;;;;;3.90;67.40;;;;;;5084973;28;19916;-70
2022/02/14 07:05:56;;;;;;;;;;;3.90;67.90;;;;;;5067493;28;19927;-71
2022/02/14 07:08:21;;;;;;;;;;;3.80;67.70;;;;;;5084469;28;19908;-70
2022/02/14 07:10:47;;;;;;;;;;;3.80;68.10;;;;;;5085059;28;19931;-71
2022/02/14 07:13:13;;;;;;;;;;;3.80;67.70;;;;;;5085453;28;19908;-71
2022/02/14 07:15:39;;;;;;;;;;;3.90;67.70;;;;;;5085725;28;19908;-71
2022/02/14 07:18:04;;;;;;;;;;;3.90;66.70;;;;;;5084505;28;19996;-70
2022/02/14 07:20:30;;;;;;;;;;;4.00;66.90;;;;;;5067544;28;19912;-71
2022/02/14 07:22:58;;;;;;;;;;;4.00;65.90;;;;;;5084337;28;19916;-70
2022/02/14 07:25:24;;;;;;;;;;;4.20;64.80;;;;;;5083935;28;19958;-71
2022/02/14 07:27:50;;;;;;;;;;;4.20;64.60;;;;;;5085122;28;19908;-71
2022/02/14 07:30:16;;;;;;;;;;;4.30;64.70;;;;;;5084288;28;19916;-71
2022/02/14 07:32:41;;;;;;;;;;;4.40;64.20;;;;;;5085193;28;20219;-71
2022/02/14 07:35:07;;;;;;;;;;;4.50;64.00;;;;;;5085016;28;19912;-70
2022/02/14 07:37:33;;;;;;;;;;;4.60;64.50;;;;;;5085063;28;19913;-71
2022/02/14 07:39:59;;;;;;;;;;;4.60;62.70;;;;;;5084961;28;19931;-69
2022/02/14 07:42:25;;;;;;;;;;;4.70;61.20;;;;;;5079474;28;19908;-70
2022/02/14 07:44:51;;;;;;;;;;;4.80;61.30;;;;;;5083356;28;19971;-68
2022/02/14 07:47:17;;;;;;;;;;;4.80;61.10;;;;;;5087161;28;19915;-70
2022/02/14 07:49:43;;;;;;;;;;;4.90;60.80;;;;;;5084065;28;20115;-69
2022/02/14 07:52:08;;;;;;;;;;;4.90;60.70;;;;;;5073529;28;19936;-70
2022/02/14 07:54:34;;;;;;;;;;;4.90;60.90;;;;;;5064485;28;19913;-70
2022/02/14 07:57:00;;;;;;;;;;;4.90;60.50;;;;;;5064538;28;19913;-68
2022/02/14 07:59:26;;;;;;;;;;;4.90;59.80;;;;;;5067190;28;19909;-71
2022/02/14 08:01:52;;;;;;;;;;;4.90;59.50;;;;;;5085650;28;19912;-70
2022/02/14 08:04:18;;;;;;;;;;;4.80;59.90;;;;;;5083674;28;19930;-70
2022/02/14 08:06:43;;;;;;;;;;;4.80;59.60;;;;;;5087802;28;19930;-71
2022/02/14 08:09:12;;;;;;;;;;;4.80;60.00;;;;;;5087923;28;19915;-70
2022/02/14 08:11:38;;;;;;;;;;;4.90;59.60;;;;;;5087307;28;19971;-71
2022/02/14 08:14:04;;;;;;;;;;;4.90;59.70;;;;;;5085966;28;19916;-71
2022/02/14 08:16:32;;;;;;;;;;;4.90;59.10;;;;;;5084592;28;19908;-71
2022/02/14 08:18:59;;;;;;;;;;;4.90;58.90;;;;;;5084555;28;19946;-69
2022/02/14 08:21:26;;;;;;;;;;;5.00;59.20;;;;;;5083718;28;19909;-70
2022/02/14 08:23:52;;;;;;;;;;;5.10;58.60;;;;;;5084131;28;19939;-69
2022/02/14 08:26:18;;;;;;;;;;;5.10;58.40;;;;;;5083087;28;19908;-70
2022/02/14 08:28:44;;;;;;;;;;;5.20;57.70;;;;;;5083990;28;20253;-70
2022/02/14 08:31:10;;;;;;;;;;;5.20;57.40;;;;;;5082704;28;19908;-69
2022/02/14 08:33:36;;;;;;;;;;;5.20;57.40;;;;;;5084238;28;20203;-70
2022/02/14 08:36:02;;;;;;;;;;;5.20;57.50;;;;;;5083276;28;19908;-70
2022/02/14 08:38:27;;;;;;;;;;;5.30;58.10;;;;;;5084075;28;19929;-69
2022/02/14 08:40:53;;;;;;;;;;;5.50;57.10;;;;;;5083793;28;19923;-70
2022/02/14 08:43:19;;;;;;;;;;;5.60;55.40;;;;;;5083974;28;19946;-70
2022/02/14 08:45:44;;;;;;;;;;;5.70;56.00;;;;;;5083848;28;19912;-70
2022/02/14 08:48:10;;;;;;;;;;;5.80;54.60;;;;;;5084042;28;20037;-70
2022/02/14 08:50:40;;;;;;;;;;;5.90;53.60;;;;;;5083360;28;19909;-70
2022/02/14 08:53:06;;;;;;;;;;;6.00;53.80;;;;;;5063206;28;20203;-70
2022/02/14 08:55:32;;;;;;;;;;;6.10;53.60;;;;;;5064399;28;20015;-70
2022/02/14 08:57:58;;;;;;;;;;;6.20;53.30;;;;;;5063949;28;19917;-70
2022/02/14 09:00:24;;;;;;;;;;;6.10;52.10;;;;;;5064072;28;19928;-69
2022/02/14 09:02:49;;;;;;;;;;;6.20;52.50;;;;;;5063983;28;19940;-70
2022/02/14 09:05:15;;;;;;;;;;;6.10;52.50;;;;;;5063660;28;19946;-69
2022/02/14 09:07:41;;;;;;;;;;;6.10;52.30;;;;;;5062581;28;20135;-70
2022/02/14 09:10:07;;;;;;;;;;;6.00;52.30;;;;;;5063521;28;19940;-70
2022/02/14 09:12:33;;;;;;;;;;;6.00;52.80;;;;;;5090491;28;19913;-70
2022/02/14 09:14:59;;;;;;;;;;;6.00;52.60;;;;;;5077810;28;19919;-70
2022/02/14 09:17:28;;;;;;;;;;;6.00;52.90;;;;;;5074414;28;20088;-70
2022/02/14 09:19:54;;;;;;;;;;;6.00;51.90;;;;;;5066297;28;19908;-70
2022/02/14 09:22:20;;;;;;;;;;;6.10;52.10;;;;;;5078922;28;20254;-70
2022/02/14 09:24:45;;;;;;;;;;;6.20;51.70;;;;;;5083211;28;19944;-70
2022/02/14 09:27:11;;;;;;;;;;;6.20;51.40;;;;;;5083218;28;20137;-70
2022/02/14 09:29:37;;;;;;;;;;;6.30;51.70;;;;;;5083479;28;19975;-70
2022/02/14 09:32:05;;;;;;;;;;;6.50;51.90;;;;;;5082759;28;19915;-70
2022/02/14 09:34:31;;;;;;;;;;;6.70;50.40;;;;;;5082051;28;20241;-70
2022/02/14 09:36:57;;;;;;;;;;;6.90;49.60;;;;;;5082781;28;19914;-70
2022/02/14 09:39:23;;;;;;;;;;;7.20;49.30;;;;;;5083321;28;19915;-70
2022/02/14 09:41:48;;;;;;;;;;;7.30;47.90;;;;;;5082853;28;19937;-70
2022/02/14 09:44:14;;;;;;;;;;;7.50;48.10;;;;;;5083039;28;19936;-70
2022/02/14 09:46:41;;;;;;;;;;;7.50;46.90;;;;;;5082149;28;19908;-70
2022/02/14 09:49:07;;;;;;;;;;;7.60;47.00;;;;;;5081739;28;20092;-70
2022/02/14 09:51:34;;;;;;;;;;;7.60;47.00;;;;;;5081566;28;20187;-70
2022/02/14 09:53:59;;;;;;;;;;;7.80;46.90;;;;;;5083117;28;20118;-70
2022/02/14 09:56:29;;;;;;;;;;;8.00;46.20;;;;;;5083048;28;19923;-70
2022/02/14 09:58:56;;;;;;;;;;;8.20;46.10;;;;;;5082965;28;19921;-71
2022/02/14 10:01:22;;;;;;;;;;;8.30;45.40;;;;;;5081325;28;19915;-70
2022/02/14 10:03:49;;;;;;;;;;;8.40;45.10;;;;;;5081573;28;19935;-70
2022/02/14 10:06:30;;;;;;;;;;;8.40;44.60;;;;;;5083321;28;19959;-70
2022/02/14 10:09:09;;;;;;;;;;;8.50;44.40;;;;;;5081885;28;19945;-71
2022/02/14 10:11:37;;;;;;;;;;;8.50;44.10;;;;;;5082562;28;19909;-70
2022/02/14 10:14:32;;;;;;;;;;;8.50;44.30;;;;;;5081632;28;19908;-70
2022/02/14 10:17:09;;;;;;;;;;;8.50;44.10;;;;;;5072995;28;19912;-70
2022/02/14 10:19:53;;;;;;;;;;;8.60;44.20;;;;;;5081613;28;20107;-71
2022/02/14 10:22:19;;;;;;;;;;;8.70;43.80;;;;;;5080755;28;20227;-70
2022/02/14 10:24:45;;;;;;;;;;;8.80;43.60;;;;;;5081883;28;19916;-70
2022/02/14 10:27:11;;;;;;;;;;;8.90;43.60;;;;;;5081774;28;19955;-71
2022/02/14 10:29:37;;;;;;;;;;;9.00;43.20;;;;;;5080802;28;19915;-70
2022/02/14 10:32:24;;;;;;;;;;;9.10;42.80;;;;;;5081295;28;19928;-70
2022/02/14 10:34:52;;;;;;;;;;;9.20;42.80;;;;;;5081470;28;19975;-70
2022/02/14 10:37:18;;;;;;;;;;;9.30;42.60;;;;;;5079017;28;19924;-71
2022/02/14 10:39:45;;;;;;;;;;;9.40;42.20;;;;;;5081930;28;19917;-70
2022/02/14 10:42:12;;;;;;;;;;;9.30;42.10;;;;;;5081896;28;19997;-69
2022/02/14 10:47:40;;;;;;;;;;;9.30;41.70;;;;;;5080532;28;19932;-66
2022/02/14 10:50:08;;;;;;;;;;;9.50;42.10;;;;;;5082599;28;19971;-71
2022/02/14 10:52:44;;;;;;;;;;;9.60;41.90;;;;;;5080272;28;19909;-72
2022/02/14 10:55:15;;;;;;;;;;;9.90;41.30;;;;;;5080854;28;19923;-70
2022/02/14 10:57:42;;;;;;;;;;;10.40;40.30;;;;;;5079360;28;19913;-68
2022/02/14 11:00:12;;;;;;;;;;;11.10;39.30;;;;;;5085013;28;19979;-72
2022/02/14 11:02:39;;;;;;;;;;;12.30;37.30;;;;;;5061723;28;20199;-69
2022/02/14 11:05:06;;;;;;;;;;;13.90;34.70;;;;;;5083956;28;19908;-73
2022/02/14 11:07:32;;;;;;;;;;;14.60;33.70;;;;;;5084550;28;20107;-70
2022/02/14 11:09:59;;;;;;;;;;;14.60;32.40;;;;;;5084499;28;19950;-72
2022/02/14 11:12:29;;;;;;;;;;;14.10;32.80;;;;;;5083414;28;20222;-68
2022/02/14 11:14:55;;;;;;;;;;;13.40;34.50;;;;;;5084592;28;20116;-68
2022/02/14 11:17:25;;;;;;;;;;;13.30;34.40;;;;;;5083554;28;19919;-65
2022/02/14 11:20:04;;;;;;;;;;;13.60;34.80;;;;;;5084858;28;20008;-66
2022/02/14 11:22:33;;;;;;;;;;;14.10;33.30;;;;;;5081292;28;19909;-66
2022/02/14 11:25:23;;;;;;;;;;;14.80;32.60;;;;;;5083923;28;19908;-69
2022/02/14 11:28:06;;;;;;;;;;;14.80;32.00;;;;;;5068352;28;19981;-69
2022/02/14 11:30:31;;;;;;;;;;;15.20;31.70;;;;;;5063625;28;20035;-68
2022/02/14 11:33:06;;;;;;;;;;;16.40;30.20;;;;;;5083315;28;19971;-69
2022/02/14 11:35:32;;;;;;;;;;;17.50;29.30;;;;;;5083509;28;19944;-69
2022/02/14 11:38:00;;;;;;;;;;;19.50;27.40;;;;;;5083660;28;20116;-69
2022/02/14 11:40:41;;;;;;;;;;;20.00;26.70;;;;;;5084740;28;19908;-69
2022/02/14 11:43:15;;;;;;;;;;;19.70;27.10;;;;;;5082923;28;19908;-69
2022/02/14 11:45:41;;;;;;;;;;;19.50;27.00;;;;;;5084478;28;19951;-69
2022/02/14 11:48:26;;;;;;;;;;;18.90;27.30;;;;;;5082585;28;19908;-69
2022/02/14 11:51:08;;;;;;;;;;;18.10;28.00;;;;;;5083342;28;19971;-68
2022/02/14 11:53:42;;;;;;;;;;;17.90;28.60;;;;;;5083740;28;20266;-69
2022/02/14 11:56:23;;;;;;;;;;;18.30;28.20;;;;;;5083452;28;19908;-68
2022/02/14 11:59:12;;;;;;;;;;;18.20;28.10;;;;;;5085364;28;19995;-69
2022/02/14 12:01:50;;;;;;;;;;;17.90;28.20;;;;;;5079208;28;20008;-69
2022/02/14 12:04:31;;;;;;;;;;;17.10;29.40;;;;;;5082236;28;19913;-68
2022/02/14 12:07:26;;;;;;;;;;;16.90;29.30;;;;;;5084314;28;19920;-68
2022/02/14 12:12:39;;;;;;;;;;;17.50;28.60;;;;;;5078838;28;19927;-69
2022/02/14 12:20:39;;;;;;;;;;;16.30;30.00;;;;;;5072429;28;19934;-69
2022/02/14 12:23:06;;;;;;;;;;;16.00;30.30;;;;;;5082100;28;20207;-69
2022/02/14 12:25:32;;;;;;;;;;;16.00;30.90;;;;;;5083005;28;19909;-69
2022/02/14 12:28:05;;;;;;;;;;;16.80;30.20;;;;;;5083351;28;19954;-71
2022/02/14 12:30:31;;;;;;;;;;;17.90;28.80;;;;;;5083596;28;19908;-69
2022/02/14 12:33:00;;;;;;;;;;;19.10;27.50;;;;;;5082332;28;19908;-70
2022/02/14 12:35:39;;;;;;;;;;;19.80;27.00;;;;;;5083183;28;19975;-70
2022/02/14 12:38:05;;;;;;;;;;;19.60;26.90;;;;;;5081974;28;19924;-69
2022/02/14 12:40:53;;;;;;;;;;;19.50;27.00;;;;;;5065384;28;19998;-70
2022/02/14 12:43:27;;;;;;;;;;;18.70;28.10;;;;;;5081905;28;19909;-69
2022/02/14 12:45:55;;;;;;;;;;;18.10;28.30;;;;;;5081816;28;19908;-69
2022/02/14 12:48:34;;;;;;;;;;;16.90;29.60;;;;;;5082392;28;19984;-69
2022/02/14 12:51:07;;;;;;;;;;;16.30;30.90;;;;;;5082173;28;20088;-69
2022/02/14 12:53:34;;;;;;;;;;;16.00;31.20;;;;;;5081685;28;19916;-69
2022/02/14 12:56:13;;;;;;;;;;;15.60;32.00;;;;;;5081809;28;19954;-69
2022/02/14 12:58:52;;;;;;;;;;;15.10;33.00;;;;;;5081548;28;19913;-69
2022/02/14 13:01:21;;;;;;;;;;;14.70;33.90;;;;;;5067853;28;20031;-69
2022/02/14 13:03:55;;;;;;;;;;;14.40;34.30;;;;;;5062392;28;19916;-68
2022/02/14 13:06:34;;;;;;;;;;;14.00;34.60;;;;;;5087201;28;19909;-69
2022/02/14 13:09:00;;;;;;;;;;;13.80;35.10;;;;;;5081568;28;19983;-69
2022/02/14 13:11:26;;;;;;;;;;;13.80;35.50;;;;;;5075934;28;19916;-69
2022/02/14 13:13:51;;;;;;;;;;;13.70;35.80;;;;;;5062346;28;19917;-69
2022/02/14 13:16:17;;;;;;;;;;;13.70;36.40;;;;;;5066349;28;19909;-69
2022/02/14 13:18:47;;;;;;;;;;;13.70;35.60;;;;;;5064019;28;20208;-69
2022/02/14 13:21:14;;;;;;;;;;;13.60;35.90;;;;;;5080701;28;19908;-69
2022/02/14 13:23:40;;;;;;;;;;;13.70;35.90;;;;;;5081132;28;19916;-69
2022/02/14 13:26:28;;;;;;;;;;;13.80;35.10;;;;;;5080736;28;19908;-69
2022/02/14 13:28:54;;;;;;;;;;;13.90;35.10;;;;;;5081956;28;19975;-69
2022/02/14 13:31:23;;;;;;;;;;;14.20;35.00;;;;;;5080667;28;19909;-71
2022/02/14 13:33:50;;;;;;;;;;;14.10;35.10;;;;;;5081104;28;19908;-68
2022/02/14 13:36:16;;;;;;;;;;;14.00;35.10;;;;;;5082326;28;19983;-71
2022/02/14 13:38:42;;;;;;;;;;;13.90;35.70;;;;;;5077280;28;19919;-70
2022/02/14 13:41:09;;;;;;;;;;;13.80;36.10;;;;;;5069326;28;20277;-70
2022/02/14 13:43:39;;;;;;;;;;;13.50;36.00;;;;;;5073341;28;19925;-70
2022/02/14 13:46:06;;;;;;;;;;;13.30;36.50;;;;;;5077981;28;19919;-70
2022/02/14 13:48:43;;;;;;;;;;;13.10;37.20;;;;;;5081152;28;20006;-69
2022/02/14 13:51:24;;;;;;;;;;;13.00;37.70;;;;;;5079003;28;20005;-70
2022/02/14 13:54:04;;;;;;;;;;;12.80;37.70;;;;;;5076134;28;20142;-71
2022/02/14 13:56:38;;;;;;;;;;;12.50;38.20;;;;;;5080379;28;19916;-70
2022/02/14 13:59:12;;;;;;;;;;;12.40;38.60;;;;;;5080596;28;19979;-70
2022/02/14 14:01:38;;;;;;;;;;;12.40;39.30;;;;;;5079934;28;20162;-71
2022/02/14 14:04:19;;;;;;;;;;;12.20;39.40;;;;;;5081694;28;19908;-70
2022/02/14 14:06:45;;;;;;;;;;;12.10;39.60;;;;;;5081895;28;19908;-72
2022/02/14 14:09:29;;;;;;;;;;;12.10;40.00;;;;;;5080990;28;19908;-71
2022/02/14 14:11:55;;;;;;;;;;;12.00;40.10;;;;;;5081407;28;19969;-71
2022/02/14 14:14:37;;;;;;;;;;;12.00;40.40;;;;;;5081693;28;20211;-72
2022/02/14 14:17:04;;;;;;;;;;;12.00;40.50;;;;;;5063714;28;19920;-73
2022/02/14 14:19:30;;;;;;;;;;;12.00;40.90;;;;;;5081441;28;19915;-71
2022/02/14 14:21:55;;;;;;;;;;;11.90;40.50;;;;;;5080542;28;19913;-72
2022/02/14 14:24:21;;;;;;;;;;;11.90;40.20;;;;;;5081461;28;19908;-71
2022/02/14 14:26:47;;;;;;;;;;;11.80;40.60;;;;;;5081550;28;19916;-72
2022/02/14 14:29:15;;;;;;;;;;;11.70;40.70;;;;;;5081726;28;19939;-71
2022/02/14 14:31:42;;;;;;;;;;;11.70;41.00;;;;;;5081394;28;19979;-71
2022/02/14 14:34:08;;;;;;;;;;;11.50;41.20;;;;;;5084034;28;20011;-71
2022/02/14 14:36:34;;;;;;;;;;;11.50;41.60;;;;;;5085581;28;19909;-72
2022/02/14 14:38:59;;;;;;;;;;;11.50;41.90;;;;;;5084531;28;19987;-71
2022/02/14 14:41:26;;;;;;;;;;;11.40;42.00;;;;;;5085275;28;20142;-71
2022/02/14 14:43:52;;;;;;;;;;;11.40;42.30;;;;;;5085424;28;19915;-71